Les Cayes, Haiti
Current Conditions -  °F | °C
As of 12:56 AM on Sunday 28 Dec 2014 (Local Time) from MUGM Reporting Station
Clear Clear  
Wind Chill: 73°   Ceiling: Unl
Heat Index: 73°   Visibility: 6mi
Dew Point: 68°   Wind: 9mph
Humidity: 84%   Direction: 330°NNW
Pressure: 30.07"   Gusts: NA
Location:  18.2°N, 73.75°W
Report Text: MUGM 280556Z 33008KT 9999 CLR 23/20 A3007 RMK SLP181 T02280200 10272 20222 56014
Loading
Personal Weather Stations






























Interactive Weather Map New forecast layout! Learn more

10-Day Weather Forecast

Advertisements
Track Severe Weather on mobile